Time;durP1;ratioP1;P1;durP2;ratioP2;P2;SDS_P1;SDS_P2;PMS_P1;PMS_P2;Temp;Humidity;BMP_temperature;BMP_pressure;BME280_temperature;BME280_humidity;BME280_pressure;Samples;Min_cycle;Max_cycle;Signal;HPM_P1;HPM_P2
2022/04/11 00:02:02;;;;;;;8.07;3.10;;;;;;;12.45;41.14;98924.91;5055628;28;20048;-69
2022/04/11 00:04:29;;;;;;;6.43;2.70;;;;;;;12.45;41.45;98918.75;5072472;28;20040;-69
2022/04/11 00:06:55;;;;;;;6.32;3.15;;;;;;;12.28;41.52;98912.81;5072459;28;20036;-69
2022/04/11 00:09:21;;;;;;;7.53;2.88;;;;;;;12.29;41.43;98919.78;5072884;28;20044;-69
2022/04/11 00:11:48;;;;;;;7.40;2.83;;;;;;;12.11;41.73;98890.06;5038320;28;20582;-69
2022/04/11 00:14:14;;;;;;;5.93;2.80;;;;;;;12.29;41.86;98917.13;5086837;28;20036;-69
2022/04/11 00:16:43;;;;;;;6.47;2.50;;;;;;;12.38;41.77;98912.53;5086458;28;20081;-68
2022/04/11 00:19:09;;;;;;;5.72;2.80;;;;;;;12.12;42.20;98918.34;5053174;28;20089;-69
2022/04/11 00:21:35;;;;;;;6.40;2.90;;;;;;;12.07;42.30;98911.94;5051816;28;20044;-69
2022/04/11 00:24:00;;;;;;;4.45;2.65;;;;;;;12.14;42.45;98921.66;5069479;28;20067;-68
2022/04/11 00:26:27;;;;;;;5.18;2.50;;;;;;;12.05;42.57;98916.59;5069516;28;20060;-67
2022/04/11 00:28:53;;;;;;;6.78;2.85;;;;;;;12.08;42.65;98916.22;5069949;28;20485;-66
2022/04/11 00:31:19;;;;;;;7.70;3.22;;;;;;;12.05;42.92;98920.09;5054498;28;20048;-66
2022/04/11 00:33:46;;;;;;;8.07;3.13;;;;;;;12.12;42.76;98922.81;5087690;28;20032;-66
2022/04/11 00:36:15;;;;;;;5.65;2.67;;;;;;;12.20;42.91;98914.75;5071904;28;20036;-68
2022/04/11 00:38:41;;;;;;;7.57;3.10;;;;;;;12.10;43.06;98919.53;5055520;28;20051;-68
2022/04/11 00:41:09;;;;;;;11.57;3.88;;;;;;;12.01;43.21;98910.81;5038825;28;20386;-67
2022/04/11 00:43:37;;;;;;;8.77;3.50;;;;;;;12.12;43.44;98918.34;5055455;28;20484;-69
2022/04/11 00:46:05;;;;;;;6.07;3.20;;;;;;;12.18;43.18;98917.59;5072051;28;20459;-71
2022/04/11 00:48:33;;;;;;;6.18;2.90;;;;;;;12.02;43.17;98893.00;5089254;28;20044;-68
2022/04/11 00:51:04;;;;;;;6.53;2.50;;;;;;;12.22;43.28;98913.56;5071859;28;20040;-68
2022/04/11 00:53:31;;;;;;;4.82;2.30;;;;;;;11.98;43.27;98887.22;5089075;28;20533;-68
2022/04/11 00:56:00;;;;;;;3.95;2.33;;;;;;;12.03;43.58;98903.47;5038627;28;20036;-67
2022/04/11 00:58:29;;;;;;;6.65;2.80;;;;;;;12.08;43.49;98909.06;5055460;28;20185;-68
2022/04/11 01:00:55;;;;;;;4.32;2.50;;;;;;;11.88;43.94;98915.97;5088751;28;20109;-68
2022/04/11 01:03:23;;;;;;;6.35;2.70;;;;;;;11.81;43.85;98917.69;5054912;28;20048;-68
2022/04/11 01:05:49;;;;;;;4.57;2.72;;;;;;;11.73;44.18;98913.28;5072068;28;20422;-67
2022/04/11 01:08:16;;;;;;;6.70;2.85;;;;;;;11.88;44.06;98932.75;5055294;28;20047;-68
2022/04/11 01:10:43;;;;;;;7.30;2.80;;;;;;;11.86;44.13;98917.97;5087781;28;20507;-68
2022/04/11 01:13:09;;;;;;;5.75;2.65;;;;;;;11.89;43.86;98920.28;5088489;28;20051;-68
2022/04/11 01:15:36;;;;;;;5.10;2.92;;;;;;;11.90;43.78;98924.56;5055006;28;20089;-72
2022/04/11 01:18:02;;;;;;;5.75;2.70;;;;;;;11.84;43.90;98912.00;5058970;28;20092;-68
2022/04/11 01:20:28;;;;;;;3.67;2.60;;;;;;;11.87;44.05;98922.28;5075299;28;20055;-68
2022/04/11 01:22:54;;;;;;;4.10;2.35;;;;;;;11.85;44.13;98924.31;5041941;28;20451;-69
2022/04/11 01:25:20;;;;;;;4.72;2.42;;;;;;;11.87;44.18;98923.13;5042349;28;20043;-68
2022/04/11 01:27:48;;;;;;;4.40;2.10;;;;;;;11.85;44.02;98921.66;5022703;28;20048;-68
2022/04/11 01:30:16;;;;;;;3.47;1.98;;;;;;;11.88;43.95;98900.00;5038761;28;20036;-68
2022/04/11 01:32:51;;;;;;;3.80;1.45;;;;;;;11.84;44.12;98920.00;5056251;28;20445;-69
2022/04/11 01:35:22;;;;;;;2.78;1.48;;;;;;;12.06;43.98;98912.91;5071806;28;20055;-69
2022/04/11 01:37:51;;;;;;;3.45;1.52;;;;;;;11.96;44.05;98929.19;5055309;28;20052;-69
2022/04/11 01:40:18;;;;;;;3.88;1.55;;;;;;;11.78;44.19;98920.72;5055087;28;20051;-69
2022/04/11 01:42:44;;;;;;;2.75;1.75;;;;;;;11.76;44.27;98906.81;5055090;28;20054;-69
2022/04/11 01:45:13;;;;;;;3.38;1.35;;;;;;;11.87;44.47;98917.78;5071570;28;20040;-69
2022/04/11 01:47:40;;;;;;;2.22;1.60;;;;;;;11.82;44.67;98916.69;5038459;28;20444;-69
2022/04/11 01:50:08;;;;;;;2.33;1.50;;;;;;;11.81;44.65;98926.50;5038124;28;20045;-70
2022/04/11 01:52:35;;;;;;;1.30;1.20;;;;;;;11.69;44.63;98903.19;5055036;28;20076;-68
2022/04/11 01:55:03;;;;;;;2.30;1.60;;;;;;;11.90;44.59;98919.25;5038484;28;20051;-69
2022/04/11 01:57:30;;;;;;;2.05;1.60;;;;;;;11.84;44.63;98912.00;5038251;28;20045;-69
2022/04/11 01:59:57;;;;;;;2.90;1.60;;;;;;;11.87;44.58;98911.63;5037998;28;20113;-69
2022/04/11 02:02:23;;;;;;;3.33;1.90;;;;;;;11.72;44.58;98897.50;5038210;28;20097;-69
2022/04/11 02:04:50;;;;;;;3.13;1.80;;;;;;;11.77;44.67;98919.91;5054436;28;20488;-70
2022/04/11 02:07:16;;;;;;;3.03;1.85;;;;;;;11.75;44.53;98916.59;5054301;28;20048;-69
2022/04/11 02:09:42;;;;;;;3.17;1.98;;;;;;;11.75;44.65;98918.44;5054359;28;20131;-69
2022/04/11 02:12:08;;;;;;;2.67;1.80;;;;;;;11.77;44.58;98909.28;5037936;28;20131;-73
2022/04/11 02:14:35;;;;;;;4.55;2.03;;;;;;;11.83;44.79;98911.19;5038538;28;20052;-67
2022/04/11 02:17:04;;;;;;;3.40;1.90;;;;;;;11.75;44.60;98907.78;5055255;28;20036;-67
2022/04/11 02:19:31;;;;;;;2.88;1.75;;;;;;;11.73;44.92;98912.50;5054665;28;20079;-67
2022/04/11 02:21:57;;;;;;;5.32;1.95;;;;;;;11.87;44.40;98922.28;5054309;28;20055;-69
2022/04/11 02:24:23;;;;;;;4.75;1.95;;;;;;;11.87;44.29;98920.44;5037678;28;20036;-69
2022/04/11 02:26:52;;;;;;;3.55;2.03;;;;;;;11.90;44.19;98921.91;5049644;28;20059;-69
2022/04/11 02:29:18;;;;;;;2.25;1.67;;;;;;;11.84;44.41;98918.16;5040873;28;20096;-69
2022/04/11 02:31:47;;;;;;;5.22;1.92;;;;;;;11.81;44.41;98907.88;5073800;28;20176;-68
2022/04/11 02:34:14;;;;;;;5.50;1.88;;;;;;;11.79;44.66;98901.09;5057456;28;20040;-68
2022/04/11 02:36:40;;;;;;;3.40;2.20;;;;;;;11.82;44.12;98895.41;5036967;28;20046;-69
2022/04/11 02:39:08;;;;;;;3.95;2.30;;;;;;;11.80;44.29;98892.09;5090419;28;20052;-69
2022/04/11 02:41:35;;;;;;;4.40;2.75;;;;;;;11.85;44.44;98892.38;5057237;28;20391;-69
2022/04/11 02:44:02;;;;;;;3.33;2.80;;;;;;;11.76;44.47;98882.84;5056837;28;20047;-68
2022/04/11 02:46:28;;;;;;;4.22;2.80;;;;;;;11.78;44.34;98894.94;5074850;28;20054;-68
2022/04/11 02:48:54;;;;;;;3.55;2.10;;;;;;;11.76;44.37;98898.81;5056809;28;20040;-68
2022/04/11 02:51:25;;;;;;;4.55;2.17;;;;;;;11.69;44.42;98890.75;5041478;28;20404;-69
2022/04/11 02:54:09;;;;;;;4.40;2.20;;;;;;;11.73;44.34;98885.88;5061584;28;20039;-69
2022/04/11 02:56:40;;;;;;;3.33;2.03;;;;;;;11.79;44.10;98879.81;5089373;28;20480;-69
2022/04/11 02:59:07;;;;;;;3.53;2.10;;;;;;;11.76;44.33;98886.31;5057256;28;20055;-69
2022/04/11 03:01:36;;;;;;;6.38;2.95;;;;;;;11.79;44.18;98895.78;5057129;28;20043;-70
2022/04/11 03:04:08;;;;;;;4.82;2.28;;;;;;;11.78;44.17;98886.13;5058021;28;20508;-70
2022/04/11 03:06:49;;;;;;;4.63;2.72;;;;;;;11.81;44.18;98899.06;5059854;28;20081;-69
2022/04/11 03:09:15;;;;;;;5.60;2.97;;;;;;;11.84;44.04;98893.38;5090082;28;20044;-69
2022/04/11 03:11:44;;;;;;;6.13;2.60;;;;;;;11.68;44.24;98861.66;5056690;28;20051;-68
2022/04/11 03:14:11;;;;;;;7.22;3.30;;;;;;;11.93;44.17;98904.78;5073402;28;20040;-69
2022/04/11 03:16:37;;;;;;;11.05;4.03;;;;;;;11.92;43.71;98900.47;5072303;28;20093;-68
2022/04/11 03:19:04;;;;;;;10.55;4.03;;;;;;;11.90;43.95;98893.47;5056157;28;20137;-68
2022/04/11 03:21:30;;;;;;;12.25;4.22;;;;;;;11.91;44.09;98894.31;5055921;28;20044;-67
2022/04/11 03:24:04;;;;;;;9.25;3.83;;;;;;;11.90;43.92;98892.63;5073985;28;20557;-68
2022/04/11 03:26:30;;;;;;;7.15;3.83;;;;;;;11.86;43.91;98902.00;5055213;28;20056;-69
2022/04/11 03:28:57;;;;;;;8.45;3.90;;;;;;;11.83;44.10;98900.56;5073733;28;20513;-69
2022/04/11 03:31:24;;;;;;;7.80;3.47;;;;;;;11.86;44.02;98902.84;5073585;28;20052;-71
2022/04/11 03:33:50;;;;;;;7.15;4.25;;;;;;;11.80;44.13;98887.63;5056999;28;20047;-72
2022/04/11 03:36:18;;;;;;;6.35;4.10;;;;;;;11.85;44.41;98895.84;5059016;28;20078;-72
2022/04/11 03:38:44;;;;;;;7.65;4.30;;;;;;;11.89;44.26;98885.69;5071813;28;20134;-71
2022/04/11 03:41:15;;;;;;;11.00;4.57;;;;;;;11.97;44.04;98893.56;5056363;28;20455;-70
2022/04/11 03:43:41;;;;;;;8.70;4.75;;;;;;;12.00;43.72;98892.38;5072346;28;20051;-70
2022/04/11 03:46:08;;;;;;;7.40;4.93;;;;;;;12.13;44.05;98877.38;5056027;28;20050;-71
2022/04/11 03:48:35;;;;;;;8.77;5.43;;;;;;;11.95;43.93;98854.88;5072797;28;20040;-68
2022/04/11 03:51:03;;;;;;;8.80;5.32;;;;;;;11.97;44.01;98860.81;5083274;28;20528;-68
2022/04/11 03:53:30;;;;;;;9.82;5.25;;;;;;;11.97;44.05;98880.28;5092317;28;20150;-70
2022/04/11 03:55:57;;;;;;;13.82;5.75;;;;;;;12.00;43.83;98860.44;5092739;28;20059;-69
2022/04/11 03:58:24;;;;;;;10.43;5.53;;;;;;;12.03;43.95;98854.75;5074075;28;20047;-69
2022/04/11 04:00:52;;;;;;;9.82;4.82;;;;;;;12.00;43.79;98839.16;5088230;28;20552;-68
2022/04/11 04:03:24;;;;;;;13.50;5.40;;;;;;;11.98;44.06;98830.53;5089002;28;20096;-69
2022/04/11 04:05:58;;;;;;;12.63;4.97;;;;;;;11.80;44.04;98791.03;5075678;28;20567;-70
2022/04/11 04:08:30;;;;;;;7.22;4.63;;;;;;;11.89;44.31;98797.88;5093185;28;20047;-73
2022/04/11 04:11:01;;;;;;;8.73;4.10;;;;;;;11.88;44.26;98796.25;5076463;28;20039;-74
2022/04/11 04:13:29;;;;;;;7.00;3.38;;;;;;;11.89;44.45;98800.53;5076164;28;20077;-72
2022/04/11 04:15:56;;;;;;;5.10;3.25;;;;;;;11.81;43.99;98764.22;5109552;28;20043;-73
2022/04/11 04:18:24;;;;;;;7.03;2.65;;;;;;;11.99;44.04;98827.69;5076462;28;20131;-73
2022/04/11 04:20:50;;;;;;;3.67;2.80;;;;;;;11.82;44.59;98828.91;5076103;28;20044;-73
2022/04/11 04:23:17;;;;;;;3.95;3.08;;;;;;;11.86;44.37;98812.38;5075769;28;20530;-72
2022/04/11 04:25:45;;;;;;;5.32;2.80;;;;;;;11.98;44.20;98803.94;5081176;28;20060;-70
2022/04/11 04:28:13;;;;;;;3.83;2.60;;;;;;;11.84;44.38;98797.59;5096682;28;20058;-72
2022/04/11 04:30:39;;;;;;;4.88;2.90;;;;;;;11.88;44.45;98814.88;5091766;28;20468;-71
2022/04/11 04:33:06;;;;;;;4.30;2.83;;;;;;;11.71;44.51;98786.81;5072565;28;20055;-72
2022/04/11 04:35:34;;;;;;;4.47;2.58;;;;;;;11.75;44.56;98788.09;5074442;28;20027;-74
2022/04/11 04:38:05;;;;;;;7.25;2.92;;;;;;;11.71;44.74;98765.53;5075440;28;20039;-70
2022/04/11 04:40:40;;;;;;;3.50;2.50;;;;;;;11.75;44.87;98759.66;5075454;28;20035;-73
2022/04/11 04:43:09;;;;;;;5.20;2.67;;;;;;;11.70;44.71;98734.63;5074612;28;20047;-72
2022/04/11 04:45:37;;;;;;;5.15;2.28;;;;;;;11.68;45.15;98726.00;5108961;28;20052;-71
2022/04/11 04:48:23;;;;;;;4.38;2.90;;;;;;;11.79;44.81;98729.00;5061578;28;20043;-72
2022/04/11 04:50:49;;;;;;;4.43;3.10;;;;;;;11.85;44.61;98736.22;5106836;28;20039;-73
2022/04/11 04:53:17;;;;;;;8.60;3.50;;;;;;;11.91;44.51;98726.69;5095315;28;20040;-72
2022/04/11 04:55:45;;;;;;;4.38;3.33;;;;;;;11.89;44.64;98737.50;5062247;28;20039;-71
2022/04/11 04:58:12;;;;;;;5.30;3.22;;;;;;;11.89;44.79;98737.50;5062149;28;20040;-72
2022/04/11 05:00:38;;;;;;;5.25;3.35;;;;;;;11.96;44.46;98736.75;5061654;28;20046;-72
2022/04/11 05:03:07;;;;;;;8.10;3.00;;;;;;;11.96;44.58;98740.25;5095507;28;20039;-72
2022/04/11 05:05:35;;;;;;;4.78;3.25;;;;;;;11.97;44.33;98739.22;5093096;28;20066;-72
2022/04/11 05:08:01;;;;;;;6.88;3.40;;;;;;;11.96;44.66;98739.41;5072857;28;20047;-72
2022/04/11 05:10:32;;;;;;;6.60;3.45;;;;;;;11.80;44.84;98727.16;5074318;28;20130;-72
2022/04/11 05:12:59;;;;;;;7.85;3.92;;;;;;;11.84;45.16;98721.28;5073904;28;20577;-71
2022/04/11 05:15:26;;;;;;;6.22;3.70;;;;;;;11.71;45.53;98704.38;5057244;28;20055;-71
2022/04/11 05:17:58;;;;;;;4.70;3.30;;;;;;;11.74;45.26;98680.88;5058745;28;20051;-72
2022/04/11 05:20:29;;;;;;;6.22;3.42;;;;;;;11.88;45.03;98705.78;5042127;28;20044;-71
2022/04/11 05:22:58;;;;;;;9.02;3.22;;;;;;;11.76;45.41;98681.50;5041164;28;20209;-72
2022/04/11 05:25:28;;;;;;;6.90;3.58;;;;;;;11.74;45.45;98680.03;5058519;28;20050;-71
2022/04/11 05:27:58;;;;;;;4.75;3.00;;;;;;;11.72;45.68;98684.72;5057859;28;20043;-71
2022/04/11 05:30:24;;;;;;;5.25;3.40;;;;;;;11.74;46.05;98696.84;5041564;28;20647;-71
2022/04/11 05:32:52;;;;;;;7.93;3.72;;;;;;;11.64;45.89;98677.69;5057384;28;20904;-73
2022/04/11 05:35:18;;;;;;;5.32;3.33;;;;;;;11.74;46.55;98667.59;5058022;28;20063;-71
2022/04/11 05:37:46;;;;;;;7.93;3.85;;;;;;;11.58;46.32;98653.63;5058807;28;20101;-72
2022/04/11 05:40:14;;;;;;;5.25;3.40;;;;;;;11.43;46.83;98613.81;5058071;28;20036;-72
2022/04/11 05:42:42;;;;;;;4.90;3.85;;;;;;;11.50;46.54;98616.56;5057721;28;20044;-73
2022/04/11 05:45:09;;;;;;;6.95;4.15;;;;;;;11.66;46.66;98624.31;5041151;28;20151;-72
2022/04/11 05:47:36;;;;;;;9.20;4.10;;;;;;;11.62;46.26;98610.56;5057361;28;20527;-71
2022/04/11 05:50:03;;;;;;;9.75;4.60;;;;;;;11.57;46.52;98620.09;5057169;28;20074;-71
2022/04/11 05:52:30;;;;;;;8.98;4.47;;;;;;;11.51;46.70;98584.47;5057691;28;20048;-71
2022/04/11 05:54:57;;;;;;;6.78;4.43;;;;;;;11.51;47.00;98639.47;5057235;28;20121;-72
2022/04/11 05:57:23;;;;;;;7.10;4.30;;;;;;;11.47;47.43;98635.53;5040816;28;20081;-72
2022/04/11 05:59:50;;;;;;;6.78;4.13;;;;;;;11.55;47.41;98622.09;5073718;28;20052;-73
2022/04/11 06:02:17;;;;;;;8.57;4.38;;;;;;;11.59;47.20;98584.31;5057064;28;20040;-73
2022/04/11 06:04:43;;;;;;;8.38;3.25;;;;;;;11.65;47.86;98580.13;5057131;28;20043;-72
2022/04/11 06:07:09;;;;;;;5.57;4.10;;;;;;;11.81;47.50;98595.78;5057310;28;20482;-70
2022/04/11 06:09:36;;;;;;;6.55;4.15;;;;;;;11.73;47.39;98587.97;5073818;28;20055;-69
2022/04/11 06:12:03;;;;;;;9.85;4.40;;;;;;;11.66;47.51;98573.78;5090153;28;20606;-70
2022/04/11 06:14:32;;;;;;;6.85;4.00;;;;;;;11.67;47.56;98609.97;5074181;28;20118;-70
2022/04/11 06:16:59;;;;;;;6.45;4.25;;;;;;;11.67;47.19;98596.69;5056618;28;20044;-67
2022/04/11 06:19:25;;;;;;;5.70;3.83;;;;;;;11.76;47.20;98615.00;5056507;28;20046;-67
2022/04/11 06:21:52;;;;;;;8.45;4.07;;;;;;;11.74;47.37;98618.88;5073300;28;20047;-68
2022/04/11 06:24:18;;;;;;;9.48;4.88;;;;;;;11.92;47.35;98623.75;5056358;28;20489;-67
2022/04/11 06:26:45;;;;;;;10.60;5.20;;;;;;;11.88;47.09;98639.25;5090325;28;20063;-67
2022/04/11 06:29:12;;;;;;;13.43;5.60;;;;;;;11.89;47.24;98657.69;5056694;28;20040;-67
2022/04/11 06:31:41;;;;;;;12.77;5.40;;;;;;;11.77;47.30;98675.19;5056959;28;20503;-67
2022/04/11 06:34:16;;;;;;;11.43;5.78;;;;;;;11.59;46.88;98656.09;5057892;28;20040;-67
2022/04/11 06:36:43;;;;;;;10.65;5.45;;;;;;;11.79;47.05;98686.44;5073390;28;20036;-66
2022/04/11 06:39:10;;;;;;;7.35;5.05;;;;;;;11.83;46.95;98695.72;5090050;28;20047;-67
2022/04/11 06:41:43;;;;;;;10.43;4.95;;;;;;;11.73;46.90;98700.50;5058897;28;20040;-67
2022/04/11 06:44:10;;;;;;;10.05;5.18;;;;;;;11.85;46.78;98736.22;5056594;28;20047;-68
2022/04/11 06:46:42;;;;;;;10.98;5.60;;;;;;;12.06;46.86;98769.19;5073316;28;20134;-68
2022/04/11 06:49:09;;;;;;;13.02;5.90;;;;;;;12.05;46.96;98780.88;5089499;28;20140;-70
2022/04/11 06:51:35;;;;;;;11.52;5.82;;;;;;;12.03;47.28;98780.22;5056043;28;20040;-68
2022/04/11 06:54:02;;;;;;;9.93;5.35;;;;;;;12.00;47.79;98760.16;5072218;28;20545;-70
2022/04/11 06:56:28;;;;;;;11.57;6.03;;;;;;;11.92;47.66;98730.97;5056183;28;20127;-69
2022/04/11 06:58:54;;;;;;;7.30;5.00;;;;;;;12.12;47.39;98753.31;5055526;28;20051;-71
2022/04/11 07:01:23;;;;;;;10.52;5.50;;;;;;;12.29;47.88;98769.84;5072519;28;20509;-71
2022/04/11 07:03:51;;;;;;;13.35;5.60;;;;;;;12.27;48.37;98777.22;5039249;28;20032;-70
2022/04/11 07:06:17;;;;;;;9.32;5.47;;;;;;;12.03;47.98;98757.09;5055747;28;20497;-70
2022/04/11 07:08:44;;;;;;;10.73;6.00;;;;;;;12.12;47.78;98726.69;5072852;28;20417;-71
2022/04/11 07:11:10;;;;;;;12.98;8.18;;;;;;;12.36;47.45;98739.59;5072241;28;20050;-71
2022/04/11 07:13:36;;;;;;;8.90;5.45;;;;;;;12.37;47.37;98719.13;5053999;28;20066;-70
2022/04/11 07:16:02;;;;;;;9.15;5.07;;;;;;;12.36;47.22;98720.16;5071595;28;20558;-70
2022/04/11 07:18:30;;;;;;;7.55;5.05;;;;;;;12.45;46.98;98724.34;5055519;28;20035;-70
2022/04/11 07:20:57;;;;;;;11.07;5.53;;;;;;;12.63;47.19;98736.19;5039058;28;20516;-70
2022/04/11 07:23:23;;;;;;;8.65;5.30;;;;;;;12.61;47.12;98705.44;5038702;28;20036;-70
2022/04/11 07:25:50;;;;;;;10.10;5.22;;;;;;;12.49;47.22;98680.31;5054947;28;20055;-70
2022/04/11 07:28:17;;;;;;;8.10;5.00;;;;;;;12.52;47.26;98679.94;5055708;28;20062;-71
2022/04/11 07:30:44;;;;;;;10.43;5.13;;;;;;;12.21;46.98;98639.56;5055581;28;20043;-71
2022/04/11 07:33:10;;;;;;;8.50;5.97;;;;;;;12.55;47.12;98680.38;5072056;28;20509;-71
2022/04/11 07:35:37;;;;;;;11.52;6.60;;;;;;;12.52;47.39;98659.47;5071812;28;20101;-71
2022/04/11 07:38:06;;;;;;;11.60;6.45;;;;;;;12.63;46.94;98645.59;5054835;28;20138;-71
2022/04/11 07:40:32;;;;;;;11.85;7.13;;;;;;;12.69;46.76;98658.16;5055084;28;20493;-71
2022/04/11 07:42:59;;;;;;;10.68;6.60;;;;;;;12.73;46.89;98645.28;5055061;28;20047;-71
2022/04/11 07:45:25;;;;;;;11.02;6.68;;;;;;;12.90;46.58;98663.41;5071386;28;20036;-71
2022/04/11 07:47:51;;;;;;;12.15;6.50;;;;;;;13.01;45.85;98654.03;5055001;28;20128;-71
2022/04/11 07:50:18;;;;;;;10.82;6.93;;;;;;;13.09;46.00;98657.38;5088283;28;20081;-71
2022/04/11 07:52:44;;;;;;;12.70;6.50;;;;;;;13.07;45.92;98650.59;5054853;28;20083;-71
2022/04/11 07:55:12;;;;;;;11.60;6.80;;;;;;;13.25;46.03;98638.38;5038500;28;20489;-70
2022/04/11 07:57:39;;;;;;;13.38;5.97;;;;;;;13.14;45.96;98633.63;5088745;28;20097;-71
2022/04/11 08:00:06;;;;;;;11.60;6.13;;;;;;;13.11;45.98;98612.72;5038543;28;20071;-71
2022/04/11 08:02:39;;;;;;;11.00;6.00;;;;;;;13.15;45.77;98627.28;5057397;28;20079;-71
2022/04/11 08:05:06;;;;;;;13.43;6.70;;;;;;;13.24;45.76;98620.75;5071566;28;20522;-73
2022/04/11 08:07:35;;;;;;;8.10;5.50;;;;;;;12.91;45.87;98617.09;5055106;28;20047;-71
2022/04/11 08:10:04;;;;;;;10.43;4.85;;;;;;;12.96;45.84;98601.31;5072065;28;20050;-71
2022/04/11 08:12:30;;;;;;;9.23;4.93;;;;;;;12.96;46.00;98621.81;5087247;28;20564;-71
2022/04/11 08:14:57;;;;;;;13.35;4.78;;;;;;;12.89;46.47;98607.63;5037823;28;20130;-71
2022/04/11 08:17:23;;;;;;;8.40;3.88;;;;;;;12.87;46.34;98623.81;5038202;28;20135;-71
2022/04/11 08:19:50;;;;;;;10.88;4.60;;;;;;;12.78;46.56;98608.19;5054922;28;20051;-71
2022/04/11 08:22:16;;;;;;;7.75;4.53;;;;;;;12.61;46.73;98596.22;5054738;28;20051;-73
2022/04/11 08:24:42;;;;;;;12.77;5.40;;;;;;;12.58;46.43;98596.59;5054866;28;20131;-71
2022/04/11 08:27:08;;;;;;;12.88;5.72;;;;;;;12.62;46.92;98608.50;5049108;28;20059;-71
2022/04/11 08:29:35;;;;;;;8.02;4.55;;;;;;;12.58;46.92;98593.91;5063816;28;20055;-71
2022/04/11 08:32:01;;;;;;;9.88;4.30;;;;;;;12.74;46.73;98610.44;5098193;28;20046;-71
2022/04/11 08:34:28;;;;;;;7.68;4.22;;;;;;;12.52;46.76;98590.22;5064929;28;20039;-71
2022/04/11 08:36:59;;;;;;;6.53;3.55;;;;;;;12.72;46.73;98596.47;5080661;28;20051;-71
2022/04/11 08:39:26;;;;;;;7.68;3.90;;;;;;;12.41;46.68;98579.31;5115006;28;20054;-71
2022/04/11 08:42:01;;;;;;;8.15;3.13;;;;;;;12.62;46.60;98595.19;5064384;28;20048;-72
2022/04/11 08:44:28;;;;;;;10.23;3.20;;;;;;;12.52;47.33;98608.84;5115702;28;20130;-71
2022/04/11 08:47:00;;;;;;;6.25;3.00;;;;;;;12.61;46.52;98617.53;5064380;28;20082;-72
2022/04/11 08:49:28;;;;;;;5.25;3.03;;;;;;;12.36;46.40;98600.34;5081690;28;20397;-71
2022/04/11 08:51:54;;;;;;;4.82;2.97;;;;;;;12.65;46.48;98613.44;5098353;28;20507;-72
2022/04/11 08:54:21;;;;;;;5.53;4.07;;;;;;;12.62;46.46;98601.34;5081437;28;20049;-72
2022/04/11 08:56:48;;;;;;;7.82;3.45;;;;;;;12.50;46.21;98594.09;5115375;28;20597;-71
2022/04/11 08:59:15;;;;;;;6.28;3.60;;;;;;;12.58;46.29;98576.13;5064322;28;20044;-70
2022/04/11 09:01:41;;;;;;;6.13;3.50;;;;;;;12.62;46.18;98592.53;5097506;28;20042;-70
2022/04/11 09:04:08;;;;;;;6.30;3.60;;;;;;;12.66;46.12;98594.59;5081107;28;20184;-70
2022/04/11 09:06:35;;;;;;;6.07;3.65;;;;;;;12.66;46.52;98602.59;5064097;28;20043;-70
2022/04/11 09:09:03;;;;;;;7.50;3.58;;;;;;;12.68;46.46;98608.56;5080914;28;20058;-71
2022/04/11 09:11:30;;;;;;;6.63;3.47;;;;;;;12.68;46.30;98629.88;5080144;28;20036;-71
2022/04/11 09:14:00;;;;;;;8.38;4.25;;;;;;;12.76;46.59;98637.69;5097219;28;20035;-71
2022/04/11 09:16:28;;;;;;;7.13;4.15;;;;;;;12.70;46.30;98638.47;5114308;27;20050;-71
2022/04/11 09:18:55;;;;;;;9.35;4.13;;;;;;;12.78;46.31;98645.47;5097821;28;20040;-71
2022/04/11 09:21:23;;;;;;;7.95;4.97;;;;;;;12.74;46.13;98655.72;5064107;28;20054;-70
2022/04/11 09:24:18;;;;;;;9.85;5.10;;;;;;;12.99;46.07;98682.72;5064861;28;20127;-71
2022/04/11 09:26:47;;;;;;;7.78;4.38;;;;;;;12.86;46.02;98664.81;5114528;28;20593;-70
2022/04/11 09:29:15;;;;;;;7.03;3.85;;;;;;;12.86;46.06;98634.66;5114621;28;20129;-71
2022/04/11 09:31:42;;;;;;;7.63;3.90;;;;;;;13.12;45.83;98664.16;5081077;28;20124;-70
2022/04/11 09:34:27;;;;;;;7.43;3.90;;;;;;;12.99;45.72;98624.91;5097812;28;20126;-71
2022/04/11 09:36:59;;;;;;;8.00;4.22;;;;;;;13.16;45.56;98662.75;5095334;28;20532;-72
2022/04/11 09:39:28;;;;;;;10.05;4.40;;;;;;;13.11;45.34;98650.03;5094269;28;20510;-70
2022/04/11 09:41:57;;;;;;;12.82;4.38;;;;;;;12.86;45.68;98626.69;5077477;28;20536;-70
2022/04/11 09:44:24;;;;;;;11.45;4.70;;;;;;;13.23;45.51;98706.25;5094871;28;20043;-70
2022/04/11 09:46:55;;;;;;;9.07;4.82;;;;;;;13.46;45.24;98728.97;5077116;28;20042;-71
2022/04/11 09:49:21;;;;;;;5.95;4.10;;;;;;;13.33;45.36;98707.53;5077250;28;20040;-70
2022/04/11 09:52:11;;;;;;;6.53;4.70;;;;;;;13.57;44.85;98701.72;5060895;28;20078;-70
2022/04/11 09:54:43;;;;;;;6.50;3.90;;;;;;;13.48;44.64;98689.56;5076976;28;20044;-70
2022/04/11 09:57:11;;;;;;;7.40;4.30;;;;;;;13.27;44.82;98655.00;5077582;28;20142;-70
2022/04/11 09:59:41;;;;;;;8.40;4.15;;;;;;;13.31;44.79;98650.94;5077858;28;20075;-70
2022/04/11 10:02:12;;;;;;;6.22;3.90;;;;;;;13.19;44.53;98668.50;5094463;28;20416;-71
2022/04/11 10:04:39;;;;;;;8.07;4.20;;;;;;;13.17;44.79;98624.41;5094876;28;20094;-71
2022/04/11 10:07:10;;;;;;;6.50;3.95;;;;;;;13.27;44.52;98648.84;5094285;28;20055;-71
2022/04/11 10:09:39;;;;;;;9.50;4.20;;;;;;;13.20;44.89;98643.50;5076655;28;20082;-70
2022/04/11 10:12:06;;;;;;;6.97;3.85;;;;;;;13.01;45.54;98648.72;5093119;28;20052;-69
2022/04/11 10:14:32;;;;;;;5.55;4.15;;;;;;;12.81;45.33;98608.63;5060028;28;20043;-70
2022/04/11 10:17:03;;;;;;;5.72;4.18;;;;;;;12.79;45.49;98584.00;5076455;28;20051;-71
2022/04/11 10:19:34;;;;;;;7.07;4.80;;;;;;;13.11;45.61;98641.19;5110665;28;20035;-70
2022/04/11 10:22:04;;;;;;;;;;;;;;;13.13;45.33;98636.50;5094399;28;20078;-70
2022/04/11 10:24:34;;;;;;;7.40;4.93;;;;;;;12.81;45.96;98642.41;5077262;28;20380;-70
2022/04/11 10:27:21;;;;;;;9.85;5.18;;;;;;;12.92;46.44;98631.22;5093283;28;20059;-69
2022/04/11 10:29:53;;;;;;;10.63;5.72;;;;;;;12.62;46.48;98619.16;5076738;28;20092;-69
2022/04/11 10:32:26;;;;;;;8.88;5.13;;;;;;;12.43;46.55;98588.72;5076840;28;20138;-69
2022/04/11 10:34:57;;;;;;;7.53;5.15;;;;;;;12.61;46.66;98646.84;5059627;28;20075;-70
2022/04/11 10:37:47;;;;;;;6.75;4.70;;;;;;;12.88;46.34;98628.16;5076495;28;20050;-70
2022/04/11 10:40:16;;;;;;;7.55;5.05;;;;;;;12.94;46.32;98639.84;5099378;28;20083;-70
2022/04/11 10:43:01;;;;;;;9.25;5.55;;;;;;;12.51;46.14;98556.63;5075822;28;20047;-70
2022/04/11 10:45:35;;;;;;;10.10;5.30;;;;;;;13.01;46.16;98630.91;5076225;28;20203;-70
2022/04/11 10:48:04;;;;;;;10.93;5.55;;;;;;;12.99;46.01;98614.25;5092774;28;20412;-70
2022/04/11 10:50:44;;;;;;;10.70;5.68;;;;;;;13.14;45.46;98614.97;5076973;28;20134;-71
2022/04/11 10:53:24;;;;;;;9.38;5.90;;;;;;;12.99;46.17;98638.22;5092753;28;20505;-71
2022/04/11 10:55:54;;;;;;;9.13;5.82;;;;;;;12.97;45.98;98610.97;5076992;28;20070;-70
2022/04/11 10:58:22;;;;;;;10.73;5.78;;;;;;;13.01;46.36;98633.56;5110381;28;20050;-69
2022/04/11 11:00:51;;;;;;;14.02;6.65;;;;;;;12.79;46.26;98615.97;5093305;28;20492;-70
2022/04/11 11:03:17;;;;;;;10.43;6.28;;;;;;;12.84;46.36;98642.06;5076593;28;20428;-75
2022/04/11 11:05:45;;;;;;;15.00;7.13;;;;;;;12.92;46.41;98661.38;5076155;28;20047;-74
2022/04/11 11:08:17;;;;;;;12.25;6.80;;;;;;;12.94;46.23;98659.34;5109977;28;20074;-76
2022/04/11 11:10:49;;;;;;;10.23;6.88;;;;;;;12.99;46.14;98645.41;5092583;28;20533;-75
2022/04/11 11:13:41;;;;;;;14.73;7.13;;;;;;;13.26;45.85;98637.38;5092028;28;20491;-75
2022/04/11 11:16:11;;;;;;;16.65;8.02;;;;;;;13.11;46.24;98662.53;5092809;28;20905;-76
2022/04/11 11:18:55;;;;;;;16.52;7.93;;;;;;;13.32;46.03;98662.41;5092398;28;20075;-74
2022/04/11 11:21:37;;;;;;;15.88;8.13;;;;;;;13.45;45.92;98657.13;5091583;28;20060;-75
2022/04/11 11:24:12;;;;;;;13.45;7.78;;;;;;;13.40;45.68;98623.06;5091932;28;20051;-76
2022/04/11 11:26:49;;;;;;;14.00;8.18;;;;;;;13.44;45.63;98618.13;5091590;28;20121;-73
2022/04/11 11:29:24;;;;;;;10.90;7.47;;;;;;;13.41;45.43;98650.53;5109104;28;20047;-74
2022/04/11 11:31:53;;;;;;;13.88;8.25;;;;;;;13.43;45.52;98659.16;5075514;28;20462;-74
2022/04/11 11:34:43;;;;;;;13.07;7.72;;;;;;;13.56;45.59;98694.72;5095146;28;20044;-73
2022/04/11 11:37:12;;;;;;;13.63;7.95;;;;;;;13.57;45.58;98683.03;5115067;28;20047;-75
2022/04/11 11:39:45;;;;;;;15.82;8.52;;;;;;;13.58;45.55;98686.50;5079847;28;20061;-74